Great Animation — VRHZ2 — position and weather

sailwx.info

Track history (hours):
 
Tides and Currents Weather Stations Pressure Air Temp Water Temp Dewpoint Dewpoint Depression Visibility Wind Speed Wind Dir Waves Ship Positions

Great Animation

Last reported at 2018-Jun-19 04:38 UTC. Time now 2018-Jun-19 12:39 UTC.
Position N 22°33' E 120°20'.

Length 229 m; draft 14 m.

Type: Cargo ship. MMSI: 477550100.

Date/timePositionNaut miles runAvg speedWind from/ knotsBaromVisibWave heightAir tempDewpointWater temp
2018-Jun-19 04:38N 22°33' E 120°20'1 4.9
2018-Jun-19 04:28N 22°33' E 120°19'3 6.1
2018-Jun-19 03:59N 22°32' E 120°16'0 0.5
2018-Jun-19 03:30N 22°32' E 120°16'0 0.1
2018-Jun-19 03:00N 22°32' E 120°16'0 0.1
2018-Jun-19 02:30N 22°32' E 120°16'0 0.6
2018-Jun-19 02:00N 22°32' E 120°16'2 3.1
2018-Jun-19 01:30N 22°32' E 120°14'2 3.3
2018-Jun-19 00:55N 22°31' E 120°16'0 0.2
2018-Jun-19 00:07N 22°31' E 120°16'0 0.3
2018-Jun-18 23:55N 22°31' E 120°16'0 0.1
2018-Jun-18 23:25N 22°31' E 120°16'0 0.0
2018-Jun-18 22:55N 22°31' E 120°16'0 0.0
2018-Jun-18 22:19N 22°31' E 120°16'0 0.0
2018-Jun-18 21:49N 22°31' E 120°16'0 0.0
2018-Jun-18 21:25N 22°31' E 120°16'0 0.0
2018-Jun-18 20:55N 22°31' E 120°16'0 0.1
2018-Jun-18 20:25N 22°31' E 120°16'0 1.1
2018-Jun-18 19:58N 22°31' E 120°15'2 4.3
2018-Jun-18 19:30N 22°32' E 120°13'4 8.7
2018-Jun-18 19:00N 22°35' E 120°11'510.7
2018-Jun-18 18:30N 22°40' E 120°08'510.5
2018-Jun-18 18:00N 22°45' E 120°06'  
Track history (hours):
 
Tides and Currents Weather Stations Pressure Air Temp Water Temp Dewpoint Dewpoint Depression Visibility Wind Speed Wind Dir Waves Ship Positions

Great Animation

Last reported at 2018-Jun-19 04:38 UTC. Time now 2018-Jun-19 12:39 UTC.
Position N 22°33' E 120°20'.

Length 229 m; draft 14 m.

Type: Cargo ship. MMSI: 477550100.

Date/timePositionNaut miles runAvg speedWind from/ knotsBaromVisibWave heightAir tempDewpointWater temp
2018-Jun-19 04:38N 22°33' E 120°20'1 4.9
2018-Jun-19 04:28N 22°33' E 120°19'3 6.1
2018-Jun-19 03:59N 22°32' E 120°16'0 0.5
2018-Jun-19 03:30N 22°32' E 120°16'0 0.1
2018-Jun-19 03:00N 22°32' E 120°16'0 0.1
2018-Jun-19 02:30N 22°32' E 120°16'0 0.6
2018-Jun-19 02:00N 22°32' E 120°16'2 3.1
2018-Jun-19 01:30N 22°32' E 120°14'2 3.3
2018-Jun-19 00:55N 22°31' E 120°16'0 0.2
2018-Jun-19 00:07N 22°31' E 120°16'0 0.3
2018-Jun-18 23:55N 22°31' E 120°16'0 0.1
2018-Jun-18 23:25N 22°31' E 120°16'0 0.0
2018-Jun-18 22:55N 22°31' E 120°16'0 0.0
2018-Jun-18 22:19N 22°31' E 120°16'0 0.0
2018-Jun-18 21:49N 22°31' E 120°16'0 0.0
2018-Jun-18 21:25N 22°31' E 120°16'0 0.0
2018-Jun-18 20:55N 22°31' E 120°16'0 0.1
2018-Jun-18 20:25N 22°31' E 120°16'0 1.1
2018-Jun-18 19:58N 22°31' E 120°15'2 4.3
2018-Jun-18 19:30N 22°32' E 120°13'4 8.7
2018-Jun-18 19:00N 22°35' E 120°11'510.7
2018-Jun-18 18:30N 22°40' E 120°08'510.5
2018-Jun-18 18:00N 22°45' E 120°06'  

Dump ship's entire track history